sensor_id;sensor_type;location;lat;lon;timestamp;pressure;altitude;pressure_sealevel;temperature;humidity
29879;BME280;16752;53.364;-1.488;2023-01-29T00:02:16;101717.47;;;15.83;44.27
29879;BME280;16752;53.364;-1.488;2023-01-29T00:04:41;101711.22;;;15.57;45.02
29879;BME280;16752;53.364;-1.488;2023-01-29T00:07:07;101715.41;;;15.06;45.92
29879;BME280;16752;53.364;-1.488;2023-01-29T00:09:32;101708.34;;;15.62;44.90
29879;BME280;16752;53.364;-1.488;2023-01-29T00:11:58;101702.84;;;15.51;45.01
29879;BME280;16752;53.364;-1.488;2023-01-29T00:14:24;101693.41;;;15.61;44.85
29879;BME280;16752;53.364;-1.488;2023-01-29T00:16:52;101689.31;;;15.43;45.14
29879;BME280;16752;53.364;-1.488;2023-01-29T00:19:18;101690.47;;;15.66;44.70
29879;BME280;16752;53.364;-1.488;2023-01-29T00:21:44;101681.13;;;15.87;44.11
29879;BME280;16752;53.364;-1.488;2023-01-29T00:24:10;101695.53;;;15.01;46.15
29879;BME280;16752;53.364;-1.488;2023-01-29T00:26:36;101688.00;;;14.94;46.27
29879;BME280;16752;53.364;-1.488;2023-01-29T00:29:03;101672.78;;;15.12;46.27
29879;BME280;16752;53.364;-1.488;2023-01-29T00:31:29;101672.91;;;15.38;45.37
29879;BME280;16752;53.364;-1.488;2023-01-29T00:33:55;101674.66;;;15.51;45.01
29879;BME280;16752;53.364;-1.488;2023-01-29T00:36:20;101679.09;;;14.54;47.19
29879;BME280;16752;53.364;-1.488;2023-01-29T00:38:46;101666.03;;;14.37;47.47
29879;BME280;16752;53.364;-1.488;2023-01-29T00:41:18;101665.69;;;14.43;47.93
29879;BME280;16752;53.364;-1.488;2023-01-29T00:44:03;101661.38;;;15.12;46.06
29879;BME280;16752;53.364;-1.488;2023-01-29T00:46:48;101654.88;;;15.44;45.14
29879;BME280;16752;53.364;-1.488;2023-01-29T00:49:13;101654.13;;;14.60;47.11
29879;BME280;16752;53.364;-1.488;2023-01-29T00:51:39;101648.97;;;14.28;47.81
29879;BME280;16752;53.364;-1.488;2023-01-29T00:54:05;101646.50;;;14.55;47.53
29879;BME280;16752;53.364;-1.488;2023-01-29T00:56:31;101644.13;;;14.65;47.67
29879;BME280;16752;53.364;-1.488;2023-01-29T00:58:57;101638.94;;;14.63;47.20
29879;BME280;16752;53.364;-1.488;2023-01-29T01:01:22;101633.19;;;15.12;46.56
29879;BME280;16752;53.364;-1.488;2023-01-29T01:04:07;101628.94;;;15.24;45.98
29879;BME280;16752;53.364;-1.488;2023-01-29T01:06:35;101630.63;;;15.25;45.96
29879;BME280;16752;53.364;-1.488;2023-01-29T01:09:00;101624.94;;;15.31;45.96
29879;BME280;16752;53.364;-1.488;2023-01-29T01:11:45;101630.84;;;14.52;48.08
29879;BME280;16752;53.364;-1.488;2023-01-29T01:14:10;101620.88;;;14.43;47.91
29879;BME280;16752;53.364;-1.488;2023-01-29T01:16:36;101611.63;;;14.79;46.75
29879;BME280;16752;53.364;-1.488;2023-01-29T01:19:02;101607.22;;;14.51;47.39
29879;BME280;16752;53.364;-1.488;2023-01-29T01:21:28;101605.69;;;14.32;47.94
29879;BME280;16752;53.364;-1.488;2023-01-29T01:23:53;101598.06;;;14.42;47.64
29879;BME280;16752;53.364;-1.488;2023-01-29T01:26:21;101595.03;;;14.77;46.90
29879;BME280;16752;53.364;-1.488;2023-01-29T01:28:46;101584.94;;;15.10;46.10
29879;BME280;16752;53.364;-1.488;2023-01-29T01:31:12;101587.91;;;14.36;47.91
29879;BME280;16752;53.364;-1.488;2023-01-29T01:33:38;101592.41;;;15.31;45.65
29879;BME280;16752;53.364;-1.488;2023-01-29T01:36:04;101593.72;;;14.27;47.94
29879;BME280;16752;53.364;-1.488;2023-01-29T01:38:29;101587.53;;;14.97;46.70
29879;BME280;16752;53.364;-1.488;2023-01-29T01:40:55;101590.44;;;14.23;48.79
29879;BME280;16752;53.364;-1.488;2023-01-29T01:43:20;101588.50;;;14.96;46.86
29879;BME280;16752;53.364;-1.488;2023-01-29T01:45:47;101587.63;;;15.23;45.84
29879;BME280;16752;53.364;-1.488;2023-01-29T01:50:42;101582.72;;;14.20;48.45
29879;BME280;16752;53.364;-1.488;2023-01-29T01:53:10;101589.38;;;14.68;47.51
29879;BME280;16752;53.364;-1.488;2023-01-29T01:55:37;101584.88;;;14.42;47.67
29879;BME280;16752;53.364;-1.488;2023-01-29T01:58:08;101581.19;;;14.73;47.37
29879;BME280;16752;53.364;-1.488;2023-01-29T02:00:34;101589.97;;;15.01;46.55
29879;BME280;16752;53.364;-1.488;2023-01-29T02:03:00;101585.03;;;13.38;50.36
29879;BME280;16752;53.364;-1.488;2023-01-29T02:05:44;101584.84;;;14.85;47.22
29879;BME280;16752;53.364;-1.488;2023-01-29T02:11:33;101581.31;;;14.57;47.87
29879;BME280;16752;53.364;-1.488;2023-01-29T02:13:58;101567.16;;;13.73;49.94
29879;BME280;16752;53.364;-1.488;2023-01-29T02:16:25;101568.69;;;14.34;48.14
29879;BME280;16752;53.364;-1.488;2023-01-29T02:18:50;101562.47;;;14.90;46.84
29879;BME280;16752;53.364;-1.488;2023-01-29T02:21:33;101556.75;;;15.11;46.00
29879;BME280;16752;53.364;-1.488;2023-01-29T02:26:46;101561.53;;;14.07;48.31
29879;BME280;16752;53.364;-1.488;2023-01-29T02:29:20;101552.03;;;14.89;46.68
29879;BME280;16752;53.364;-1.488;2023-01-29T02:39:28;101540.75;;;14.46;47.54
29879;BME280;16752;53.364;-1.488;2023-01-29T02:44:30;101547.72;;;14.32;48.10
29879;BME280;16752;53.364;-1.488;2023-01-29T02:54:26;101530.06;;;14.61;47.26
29879;BME280;16752;53.364;-1.488;2023-01-29T02:56:55;101527.84;;;14.82;46.63
29879;BME280;16752;53.364;-1.488;2023-01-29T02:59:43;101530.19;;;14.87;46.56
29879;BME280;16752;53.364;-1.488;2023-01-29T03:02:12;101527.84;;;13.84;48.58
29879;BME280;16752;53.364;-1.488;2023-01-29T03:04:41;101520.72;;;14.15;47.91
29879;BME280;16752;53.364;-1.488;2023-01-29T03:07:15;101505.69;;;14.85;46.52
29879;BME280;16752;53.364;-1.488;2023-01-29T03:10:02;101513.19;;;14.91;46.29
29879;BME280;16752;53.364;-1.488;2023-01-29T03:12:29;101486.31;;;14.98;45.54
29879;BME280;16752;53.364;-1.488;2023-01-29T03:15:01;101512.00;;;14.41;47.71
29879;BME280;16752;53.364;-1.488;2023-01-29T03:17:46;101514.28;;;14.74;46.74
29879;BME280;16752;53.364;-1.488;2023-01-29T03:20:16;101519.56;;;14.04;48.31
29879;BME280;16752;53.364;-1.488;2023-01-29T03:22:43;101516.44;;;14.55;47.17
29879;BME280;16752;53.364;-1.488;2023-01-29T03:25:10;101519.47;;;15.03;45.90
29879;BME280;16752;53.364;-1.488;2023-01-29T03:28:00;101518.00;;;15.11;45.58
29879;BME280;16752;53.364;-1.488;2023-01-29T03:30:50;101516.69;;;15.18;45.31
29879;BME280;16752;53.364;-1.488;2023-01-29T03:33:47;101522.22;;;15.14;45.31
29879;BME280;16752;53.364;-1.488;2023-01-29T03:36:19;101516.00;;;15.15;45.28
29879;BME280;16752;53.364;-1.488;2023-01-29T03:38:48;101515.91;;;15.16;45.31
29879;BME280;16752;53.364;-1.488;2023-01-29T03:46:25;101502.66;;;14.91;45.95
29879;BME280;16752;53.364;-1.488;2023-01-29T03:49:11;101494.47;;;15.08;45.48
29879;BME280;16752;53.364;-1.488;2023-01-29T03:51:44;101487.81;;;15.15;45.16
29879;BME280;16752;53.364;-1.488;2023-01-29T03:54:30;101488.88;;;15.13;45.24
29879;BME280;16752;53.364;-1.488;2023-01-29T03:57:12;101474.16;;;14.42;46.48
29879;BME280;16752;53.364;-1.488;2023-01-29T04:02:12;101475.25;;;15.06;44.84
29879;BME280;16752;53.364;-1.488;2023-01-29T04:04:40;101474.09;;;15.10;44.83
29879;BME280;16752;53.364;-1.488;2023-01-29T04:07:12;101475.78;;;15.11;44.84
29879;BME280;16752;53.364;-1.488;2023-01-29T04:09:55;101473.78;;;15.15;44.85
29879;BME280;16752;53.364;-1.488;2023-01-29T04:12:27;101468.38;;;15.16;44.86
29879;BME280;16752;53.364;-1.488;2023-01-29T04:14:53;101455.66;;;14.83;45.53
29879;BME280;16752;53.364;-1.488;2023-01-29T04:17:26;101453.91;;;14.96;45.18
29879;BME280;16752;53.364;-1.488;2023-01-29T04:19:54;101458.84;;;14.88;45.10
29879;BME280;16752;53.364;-1.488;2023-01-29T04:22:20;101453.81;;;15.11;44.80
29879;BME280;16752;53.364;-1.488;2023-01-29T04:24:48;101455.47;;;14.86;44.94
29879;BME280;16752;53.364;-1.488;2023-01-29T04:27:20;101448.22;;;15.15;44.43
29879;BME280;16752;53.364;-1.488;2023-01-29T04:32:27;101440.88;;;15.20;44.41
29879;BME280;16752;53.364;-1.488;2023-01-29T04:34:58;101439.69;;;15.24;44.52
29879;BME280;16752;53.364;-1.488;2023-01-29T04:40:13;101434.41;;;14.59;45.51
29879;BME280;16752;53.364;-1.488;2023-01-29T04:42:53;101421.50;;;15.07;44.47
29879;BME280;16752;53.364;-1.488;2023-01-29T04:57:52;101396.72;;;14.97;44.31
29879;BME280;16752;53.364;-1.488;2023-01-29T05:00:40;101397.25;;;15.02;44.09
29879;BME280;16752;53.364;-1.488;2023-01-29T05:03:05;101395.88;;;15.09;43.58
29879;BME280;16752;53.364;-1.488;2023-01-29T05:05:33;101393.47;;;15.19;43.62
29879;BME280;16752;53.364;-1.488;2023-01-29T05:08:00;101392.19;;;14.99;43.81
29879;BME280;16752;53.364;-1.488;2023-01-29T05:10:26;101390.16;;;15.15;44.00
29879;BME280;16752;53.364;-1.488;2023-01-29T05:12:59;101387.22;;;15.20;43.69
29879;BME280;16752;53.364;-1.488;2023-01-29T05:15:30;101373.28;;;14.26;46.18
29879;BME280;16752;53.364;-1.488;2023-01-29T05:17:57;101377.13;;;14.74;44.96
29879;BME280;16752;53.364;-1.488;2023-01-29T05:20:29;101382.88;;;15.06;44.32
29879;BME280;16752;53.364;-1.488;2023-01-29T05:22:56;101385.09;;;15.12;44.14
29879;BME280;16752;53.364;-1.488;2023-01-29T05:25:23;101384.34;;;14.85;44.90
29879;BME280;16752;53.364;-1.488;2023-01-29T05:27:49;101376.03;;;15.04;44.37
29879;BME280;16752;53.364;-1.488;2023-01-29T05:30:32;101372.19;;;14.95;44.52
29879;BME280;16752;53.364;-1.488;2023-01-29T05:32:58;101369.56;;;14.95;44.26
29879;BME280;16752;53.364;-1.488;2023-01-29T05:35:23;101353.59;;;14.58;44.58
29879;BME280;16752;53.364;-1.488;2023-01-29T05:37:49;101361.75;;;14.81;44.24
29879;BME280;16752;53.364;-1.488;2023-01-29T05:40:14;101359.81;;;14.57;44.75
29879;BME280;16752;53.364;-1.488;2023-01-29T05:42:40;101348.00;;;14.63;44.33
29879;BME280;16752;53.364;-1.488;2023-01-29T05:45:06;101355.00;;;14.10;44.77
29879;BME280;16752;53.364;-1.488;2023-01-29T05:47:32;101311.28;;;14.20;44.19
29879;BME280;16752;53.364;-1.488;2023-01-29T05:49:57;101359.34;;;15.03;43.09
29879;BME280;16752;53.364;-1.488;2023-01-29T05:52:22;101352.47;;;14.88;43.76
29879;BME280;16752;53.364;-1.488;2023-01-29T05:54:48;101348.16;;;15.00;43.31
29879;BME280;16752;53.364;-1.488;2023-01-29T05:57:13;101336.22;;;14.81;43.33
29879;BME280;16752;53.364;-1.488;2023-01-29T05:59:40;101341.41;;;15.08;42.98
29879;BME280;16752;53.364;-1.488;2023-01-29T06:02:05;101342.53;;;15.17;43.00
29879;BME280;16752;53.364;-1.488;2023-01-29T06:04:31;101339.19;;;15.02;43.25
29879;BME280;16752;53.364;-1.488;2023-01-29T06:06:56;101335.03;;;14.06;45.16
29879;BME280;16752;53.364;-1.488;2023-01-29T06:09:22;101334.13;;;14.99;43.33
29879;BME280;16752;53.364;-1.488;2023-01-29T06:11:48;101317.53;;;13.78;45.34
29879;BME280;16752;53.364;-1.488;2023-01-29T06:14:13;101318.44;;;14.45;43.86
29879;BME280;16752;53.364;-1.488;2023-01-29T06:16:41;101318.56;;;14.69;43.47
29879;BME280;16752;53.364;-1.488;2023-01-29T06:19:06;101324.19;;;14.90;42.79
29879;BME280;16752;53.364;-1.488;2023-01-29T06:21:32;101321.19;;;14.29;43.97
29879;BME280;16752;53.364;-1.488;2023-01-29T06:23:57;101310.41;;;13.66;45.43
29879;BME280;16752;53.364;-1.488;2023-01-29T06:26:23;101316.75;;;13.90;44.98
29879;BME280;16752;53.364;-1.488;2023-01-29T06:28:49;101326.69;;;14.53;43.62
29879;BME280;16752;53.364;-1.488;2023-01-29T06:31:14;101323.47;;;15.01;42.65
29879;BME280;16752;53.364;-1.488;2023-01-29T06:33:40;101317.84;;;13.73;44.66
29879;BME280;16752;53.364;-1.488;2023-01-29T06:36:05;101326.63;;;15.06;42.43
29879;BME280;16752;53.364;-1.488;2023-01-29T06:38:31;101319.84;;;14.63;43.16
29879;BME280;16752;53.364;-1.488;2023-01-29T06:40:56;101321.88;;;15.23;42.21
29879;BME280;16752;53.364;-1.488;2023-01-29T06:43:22;101320.47;;;14.00;43.97
29879;BME280;16752;53.364;-1.488;2023-01-29T06:45:51;101324.09;;;14.79;43.07
29879;BME280;16752;53.364;-1.488;2023-01-29T06:48:17;101318.63;;;13.47;44.42
29879;BME280;16752;53.364;-1.488;2023-01-29T06:50:43;101320.13;;;13.92;43.83
29879;BME280;16752;53.364;-1.488;2023-01-29T06:53:08;101309.69;;;13.91;44.00
29879;BME280;16752;53.364;-1.488;2023-01-29T06:55:34;101318.19;;;14.75;41.98
29879;BME280;16752;53.364;-1.488;2023-01-29T06:58:03;101310.66;;;14.94;41.64
29879;BME280;16752;53.364;-1.488;2023-01-29T07:00:29;101305.81;;;13.96;44.08
29879;BME280;16752;53.364;-1.488;2023-01-29T07:02:54;101305.09;;;14.34;43.39
29879;BME280;16752;53.364;-1.488;2023-01-29T07:05:19;101300.66;;;13.95;43.36
29879;BME280;16752;53.364;-1.488;2023-01-29T07:07:45;101300.84;;;13.92;43.59
29879;BME280;16752;53.364;-1.488;2023-01-29T07:10:10;101297.66;;;14.14;43.00
29879;BME280;16752;53.364;-1.488;2023-01-29T07:12:36;101300.28;;;13.17;45.06
29879;BME280;16752;53.364;-1.488;2023-01-29T07:15:01;101309.16;;;14.52;42.24
29879;BME280;16752;53.364;-1.488;2023-01-29T07:17:27;101300.13;;;13.49;44.25
29879;BME280;16752;53.364;-1.488;2023-01-29T07:19:53;101282.25;;;13.39;44.48
29879;BME280;16752;53.364;-1.488;2023-01-29T07:22:18;101274.56;;;13.36;44.27
29879;BME280;16752;53.364;-1.488;2023-01-29T07:24:43;101273.66;;;12.20;46.63
29879;BME280;16752;53.364;-1.488;2023-01-29T07:27:09;101266.25;;;12.71;45.86
29879;BME280;16752;53.364;-1.488;2023-01-29T07:29:35;101255.38;;;12.77;45.09
29879;BME280;16752;53.364;-1.488;2023-01-29T07:32:00;101263.72;;;13.82;43.02
29879;BME280;16752;53.364;-1.488;2023-01-29T07:34:25;101273.97;;;12.00;46.38
29879;BME280;16752;53.364;-1.488;2023-01-29T07:36:52;101265.56;;;13.26;43.87
29879;BME280;16752;53.364;-1.488;2023-01-29T07:39:18;101279.63;;;11.92;46.67
29879;BME280;16752;53.364;-1.488;2023-01-29T07:41:46;101281.16;;;12.42;44.93
29879;BME280;16752;53.364;-1.488;2023-01-29T07:44:19;101287.47;;;12.24;45.19
29879;BME280;16752;53.364;-1.488;2023-01-29T07:46:45;101281.06;;;13.72;42.37
29879;BME280;16752;53.364;-1.488;2023-01-29T07:49:10;101295.56;;;12.65;44.33
29879;BME280;16752;53.364;-1.488;2023-01-29T07:51:35;101286.56;;;12.98;43.77
29879;BME280;16752;53.364;-1.488;2023-01-29T07:54:01;101282.03;;;12.71;43.83
29879;BME280;16752;53.364;-1.488;2023-01-29T07:56:26;101264.69;;;12.83;43.50
29879;BME280;16752;53.364;-1.488;2023-01-29T07:58:51;101256.78;;;13.40;42.24
29879;BME280;16752;53.364;-1.488;2023-01-29T08:01:17;101269.63;;;13.59;41.64
29879;BME280;16752;53.364;-1.488;2023-01-29T08:03:43;101262.31;;;14.03;40.66
29879;BME280;16752;53.364;-1.488;2023-01-29T08:06:09;101267.94;;;14.12;40.73
29879;BME280;16752;53.364;-1.488;2023-01-29T08:08:34;101260.97;;;14.11;41.03
29879;BME280;16752;53.364;-1.488;2023-01-29T08:11:00;101273.84;;;14.15;41.04
29879;BME280;16752;53.364;-1.488;2023-01-29T08:13:27;101264.41;;;13.98;41.55
29879;BME280;16752;53.364;-1.488;2023-01-29T08:15:53;101254.66;;;13.18;43.17
29879;BME280;16752;53.364;-1.488;2023-01-29T08:18:18;101263.22;;;13.90;42.10
29879;BME280;16752;53.364;-1.488;2023-01-29T08:20:44;101257.59;;;13.55;42.92
29879;BME280;16752;53.364;-1.488;2023-01-29T08:23:14;101253.56;;;13.49;42.17
29879;BME280;16752;53.364;-1.488;2023-01-29T08:25:39;101242.78;;;13.11;43.47
29879;BME280;16752;53.364;-1.488;2023-01-29T08:28:05;101240.22;;;13.52;42.24
29879;BME280;16752;53.364;-1.488;2023-01-29T08:30:31;101230.66;;;12.37;44.04
29879;BME280;16752;53.364;-1.488;2023-01-29T08:32:57;101240.00;;;13.28;42.91
29879;BME280;16752;53.364;-1.488;2023-01-29T08:35:22;101240.66;;;14.13;41.21
29879;BME280;16752;53.364;-1.488;2023-01-29T08:37:55;101243.91;;;14.29;40.91
29879;BME280;16752;53.364;-1.488;2023-01-29T08:40:22;101223.19;;;13.02;43.18
29879;BME280;16752;53.364;-1.488;2023-01-29T08:42:47;101225.56;;;14.15;40.86
29879;BME280;16752;53.364;-1.488;2023-01-29T08:45:13;101239.44;;;13.91;41.08
29879;BME280;16752;53.364;-1.488;2023-01-29T08:47:43;101234.63;;;14.11;40.57
29879;BME280;16752;53.364;-1.488;2023-01-29T08:50:09;101242.44;;;14.25;40.49
29879;BME280;16752;53.364;-1.488;2023-01-29T08:52:34;101224.38;;;14.58;40.13
29879;BME280;16752;53.364;-1.488;2023-01-29T08:54:59;101235.06;;;14.30;40.80
29879;BME280;16752;53.364;-1.488;2023-01-29T08:57:26;101225.41;;;14.43;40.17
29879;BME280;16752;53.364;-1.488;2023-01-29T08:59:51;101226.59;;;13.99;40.70
29879;BME280;16752;53.364;-1.488;2023-01-29T09:02:16;101221.38;;;12.46;43.76
29879;BME280;16752;53.364;-1.488;2023-01-29T09:04:42;101226.91;;;13.95;41.18
29879;BME280;16752;53.364;-1.488;2023-01-29T09:07:07;101215.69;;;13.52;41.53
29879;BME280;16752;53.364;-1.488;2023-01-29T09:09:32;101218.19;;;14.20;40.45
29879;BME280;16752;53.364;-1.488;2023-01-29T09:11:58;101215.31;;;13.97;41.06
29879;BME280;16752;53.364;-1.488;2023-01-29T09:14:24;101226.25;;;14.44;39.96
29879;BME280;16752;53.364;-1.488;2023-01-29T09:16:50;101213.50;;;13.98;40.94
29879;BME280;16752;53.364;-1.488;2023-01-29T09:19:15;101215.78;;;14.93;39.13
29879;BME280;16752;53.364;-1.488;2023-01-29T09:21:41;101226.22;;;15.07;38.79
29879;BME280;16752;53.364;-1.488;2023-01-29T09:24:06;101226.59;;;13.99;40.91
29879;BME280;16752;53.364;-1.488;2023-01-29T09:26:31;101214.09;;;13.76;41.10
29879;BME280;16752;53.364;-1.488;2023-01-29T09:28:57;101210.13;;;13.96;41.23
29879;BME280;16752;53.364;-1.488;2023-01-29T09:31:23;101204.00;;;14.35;40.95
29879;BME280;16752;53.364;-1.488;2023-01-29T09:33:48;101195.00;;;14.25;39.29
29879;BME280;16752;53.364;-1.488;2023-01-29T09:36:14;101202.41;;;14.71;39.49
29879;BME280;16752;53.364;-1.488;2023-01-29T09:38:39;101179.53;;;14.33;39.37
29879;BME280;16752;53.364;-1.488;2023-01-29T09:41:07;101185.22;;;14.40;40.04
29879;BME280;16752;53.364;-1.488;2023-01-29T09:44:02;101190.72;;;13.84;40.72
29879;BME280;16752;53.364;-1.488;2023-01-29T09:46:42;101189.22;;;14.32;40.64
29879;BME280;16752;53.364;-1.488;2023-01-29T09:49:28;101174.13;;;14.22;40.70
29879;BME280;16752;53.364;-1.488;2023-01-29T09:52:04;101175.66;;;14.64;39.64
29879;BME280;16752;53.364;-1.488;2023-01-29T09:54:36;101165.91;;;14.14;40.55
29879;BME280;16752;53.364;-1.488;2023-01-29T09:57:11;101167.41;;;14.81;39.26
29879;BME280;16752;53.364;-1.488;2023-01-29T09:59:39;101180.09;;;15.37;37.81
29879;BME280;16752;53.364;-1.488;2023-01-29T10:02:25;101103.72;;;14.49;38.50
29879;BME280;16752;53.364;-1.488;2023-01-29T10:10:12;101170.81;;;15.68;38.22
29879;BME280;16752;53.364;-1.488;2023-01-29T10:12:52;101163.00;;;14.56;39.30
29879;BME280;16752;53.364;-1.488;2023-01-29T10:20:42;101144.78;;;15.50;37.73
29879;BME280;16752;53.364;-1.488;2023-01-29T10:23:21;101146.63;;;15.85;38.44
29879;BME280;16752;53.364;-1.488;2023-01-29T10:25:49;101136.03;;;16.54;36.90
29879;BME280;16752;53.364;-1.488;2023-01-29T10:28:16;101142.59;;;15.68;37.04
29879;BME280;16752;53.364;-1.488;2023-01-29T10:31:04;101138.72;;;15.85;37.19
29879;BME280;16752;53.364;-1.488;2023-01-29T10:33:39;101149.63;;;16.49;36.35
29879;BME280;16752;53.364;-1.488;2023-01-29T10:36:06;101162.72;;;16.28;37.04
29879;BME280;16752;53.364;-1.488;2023-01-29T10:41:00;101148.50;;;17.19;35.18
29879;BME280;16752;53.364;-1.488;2023-01-29T10:43:31;101145.63;;;16.66;35.28
29879;BME280;16752;53.364;-1.488;2023-01-29T10:48:47;101129.50;;;17.14;35.05
29879;BME280;16752;53.364;-1.488;2023-01-29T10:58:51;101103.34;;;16.77;35.77
29879;BME280;16752;53.364;-1.488;2023-01-29T11:01:21;101111.88;;;16.92;34.61
29879;BME280;16752;53.364;-1.488;2023-01-29T11:03:55;101108.91;;;17.81;34.14
29879;BME280;16752;53.364;-1.488;2023-01-29T11:06:22;101088.06;;;16.25;35.51
29879;BME280;16752;53.364;-1.488;2023-01-29T11:11:41;101107.13;;;18.12;33.17
29879;BME280;16752;53.364;-1.488;2023-01-29T11:14:11;101105.66;;;15.79;35.79
29879;BME280;16752;53.364;-1.488;2023-01-29T11:16:42;101099.91;;;17.08;34.68
29879;BME280;16752;53.364;-1.488;2023-01-29T11:19:07;101073.41;;;17.20;34.52
29879;BME280;16752;53.364;-1.488;2023-01-29T11:21:33;101087.19;;;15.91;35.87
29879;BME280;16752;53.364;-1.488;2023-01-29T11:24:13;101087.97;;;16.48;35.21
29879;BME280;16752;53.364;-1.488;2023-01-29T11:26:45;101086.16;;;16.49;35.71
29879;BME280;16752;53.364;-1.488;2023-01-29T11:29:44;101086.41;;;15.66;36.14
29879;BME280;16752;53.364;-1.488;2023-01-29T11:34:58;101104.28;;;16.20;35.60
29879;BME280;16752;53.364;-1.488;2023-01-29T11:37:30;101105.38;;;16.96;35.03
29879;BME280;16752;53.364;-1.488;2023-01-29T11:39:56;101100.31;;;16.82;35.60
29879;BME280;16752;53.364;-1.488;2023-01-29T11:42:22;101106.06;;;17.41;34.26
29879;BME280;16752;53.364;-1.488;2023-01-29T11:44:48;101100.41;;;15.91;37.33
29879;BME280;16752;53.364;-1.488;2023-01-29T11:47:21;101062.38;;;15.10;39.26
29879;BME280;16752;53.364;-1.488;2023-01-29T11:49:52;101085.13;;;15.48;38.44
29879;BME280;16752;53.364;-1.488;2023-01-29T11:52:23;101053.78;;;14.95;40.10
29879;BME280;16752;53.364;-1.488;2023-01-29T11:54:49;101043.81;;;16.04;37.63
29879;BME280;16752;53.364;-1.488;2023-01-29T11:57:24;101056.44;;;17.11;35.83
29879;BME280;16752;53.364;-1.488;2023-01-29T11:59:51;101061.00;;;17.73;34.25
29879;BME280;16752;53.364;-1.488;2023-01-29T12:02:20;101053.56;;;17.88;34.64
29879;BME280;16752;53.364;-1.488;2023-01-29T12:04:47;101058.56;;;19.02;32.15
29879;BME280;16752;53.364;-1.488;2023-01-29T12:07:15;101059.34;;;16.31;35.53
29879;BME280;16752;53.364;-1.488;2023-01-29T12:09:47;101058.97;;;18.07;33.29
29879;BME280;16752;53.364;-1.488;2023-01-29T12:12:17;101070.22;;;17.58;34.20
29879;BME280;16752;53.364;-1.488;2023-01-29T12:15:04;101069.56;;;17.65;34.15
29879;BME280;16752;53.364;-1.488;2023-01-29T12:17:35;101069.22;;;15.61;38.28
29879;BME280;16752;53.364;-1.488;2023-01-29T12:20:15;101047.50;;;15.68;37.87
29879;BME280;16752;53.364;-1.488;2023-01-29T12:22:46;101048.25;;;16.60;37.15
29879;BME280;16752;53.364;-1.488;2023-01-29T12:25:18;101043.72;;;15.83;39.04
29879;BME280;16752;53.364;-1.488;2023-01-29T12:27:50;101037.53;;;14.78;41.02
29879;BME280;16752;53.364;-1.488;2023-01-29T12:30:27;101045.41;;;16.18;37.92
29879;BME280;16752;53.364;-1.488;2023-01-29T12:35:45;101036.50;;;15.97;39.04
29879;BME280;16752;53.364;-1.488;2023-01-29T12:40:47;101026.53;;;16.34;37.54
29879;BME280;16752;53.364;-1.488;2023-01-29T12:43:16;101033.94;;;15.38;39.89
29879;BME280;16752;53.364;-1.488;2023-01-29T12:45:43;101030.63;;;16.15;38.00
29879;BME280;16752;53.364;-1.488;2023-01-29T12:48:18;101024.84;;;15.07;40.35
29879;BME280;16752;53.364;-1.488;2023-01-29T12:50:45;101018.84;;;15.86;38.56
29879;BME280;16752;53.364;-1.488;2023-01-29T12:53:29;101012.91;;;15.60;39.94
29879;BME280;16752;53.364;-1.488;2023-01-29T12:56:43;101012.88;;;14.66;40.99
29879;BME280;16752;53.364;-1.488;2023-01-29T12:58:46;101002.66;;;15.55;39.68
29879;BME280;16752;53.364;-1.488;2023-01-29T13:04:24;100998.03;;;14.52;42.02
29879;BME280;16752;53.364;-1.488;2023-01-29T13:06:45;100994.47;;;16.16;39.01
29879;BME280;16752;53.364;-1.488;2023-01-29T13:09:14;100988.00;;;15.05;41.15
29879;BME280;16752;53.364;-1.488;2023-01-29T13:14:51;100990.72;;;15.63;40.73
29879;BME280;16752;53.364;-1.488;2023-01-29T13:17:01;100988.25;;;15.13;41.59
29879;BME280;16752;53.364;-1.488;2023-01-29T13:19:33;100983.56;;;14.08;43.53
29879;BME280;16752;53.364;-1.488;2023-01-29T13:22:01;100972.69;;;14.26;43.10
29879;BME280;16752;53.364;-1.488;2023-01-29T13:24:38;100974.84;;;13.95;43.64
29879;BME280;16752;53.364;-1.488;2023-01-29T13:27:03;100968.97;;;13.79;44.50
29879;BME280;16752;53.364;-1.488;2023-01-29T13:29:29;100969.47;;;13.97;44.43
29879;BME280;16752;53.364;-1.488;2023-01-29T13:31:55;100965.59;;;15.11;41.95
29879;BME280;16752;53.364;-1.488;2023-01-29T13:34:23;100963.44;;;14.07;43.64
29879;BME280;16752;53.364;-1.488;2023-01-29T13:36:53;100944.94;;;15.51;40.72
29879;BME280;16752;53.364;-1.488;2023-01-29T13:41:51;100945.47;;;14.38;42.83
29879;BME280;16752;53.364;-1.488;2023-01-29T13:46:53;100939.59;;;15.28;41.83
29879;BME280;16752;53.364;-1.488;2023-01-29T13:49:22;100941.94;;;14.74;42.56
29879;BME280;16752;53.364;-1.488;2023-01-29T13:51:49;100932.03;;;13.30;45.88
29879;BME280;16752;53.364;-1.488;2023-01-29T13:54:16;100935.16;;;15.86;40.97
29879;BME280;16752;53.364;-1.488;2023-01-29T13:56:45;100932.25;;;15.67;40.98
29879;BME280;16752;53.364;-1.488;2023-01-29T13:59:21;100931.47;;;16.21;40.63
29879;BME280;16752;53.364;-1.488;2023-01-29T14:04:19;100918.47;;;17.04;38.10
29879;BME280;16752;53.364;-1.488;2023-01-29T14:06:54;100924.13;;;16.79;38.52
29879;BME280;16752;53.364;-1.488;2023-01-29T14:17:16;100894.25;;;17.60;36.99
29879;BME280;16752;53.364;-1.488;2023-01-29T14:19:49;100891.28;;;17.23;37.95
29879;BME280;16752;53.364;-1.488;2023-01-29T14:22:19;100893.38;;;16.67;38.95
29879;BME280;16752;53.364;-1.488;2023-01-29T14:24:46;100885.69;;;15.66;41.30
29879;BME280;16752;53.364;-1.488;2023-01-29T14:27:17;100874.94;;;15.34;41.18
29879;BME280;16752;53.364;-1.488;2023-01-29T14:29:44;100883.59;;;15.81;40.95
29879;BME280;16752;53.364;-1.488;2023-01-29T14:32:20;100882.47;;;16.28;39.65
29879;BME280;16752;53.364;-1.488;2023-01-29T14:34:49;100862.34;;;15.26;41.48
29879;BME280;16752;53.364;-1.488;2023-01-29T14:39:49;100845.91;;;14.42;43.51
29879;BME280;16752;53.364;-1.488;2023-01-29T14:47:50;100844.50;;;16.18;39.85